sensor_id;sensor_type;location;lat;lon;timestamp;pressure;altitude;pressure_sealevel;temperature;humidity
26192;BME280;13935;55.672;37.764;2023-07-29T00:00:02;99101.06;;;17.76;100.00
26192;BME280;13935;55.672;37.764;2023-07-29T00:01:14;99108.53;;;17.79;100.00
26192;BME280;13935;55.672;37.764;2023-07-29T00:02:15;99106.53;;;17.80;100.00
26192;BME280;13935;55.672;37.764;2023-07-29T00:03:17;99104.97;;;17.79;100.00
26192;BME280;13935;55.672;37.764;2023-07-29T00:04:19;99108.88;;;17.81;100.00
26192;BME280;13935;55.672;37.764;2023-07-29T00:05:22;99112.91;;;17.80;100.00
26192;BME280;13935;55.672;37.764;2023-07-29T00:06:24;99105.41;;;17.77;100.00
26192;BME280;13935;55.672;37.764;2023-07-29T00:07:25;99097.56;;;17.85;100.00
26192;BME280;13935;55.672;37.764;2023-07-29T00:08:29;99096.13;;;17.80;100.00
26192;BME280;13935;55.672;37.764;2023-07-29T00:09:31;99097.34;;;17.79;100.00
26192;BME280;13935;55.672;37.764;2023-07-29T00:10:34;99089.75;;;17.80;100.00
26192;BME280;13935;55.672;37.764;2023-07-29T00:11:37;99100.38;;;17.72;100.00
26192;BME280;13935;55.672;37.764;2023-07-29T00:12:39;99105.69;;;17.70;100.00
26192;BME280;13935;55.672;37.764;2023-07-29T00:13:41;99107.44;;;17.77;100.00
26192;BME280;13935;55.672;37.764;2023-07-29T00:14:42;99109.78;;;17.78;100.00
26192;BME280;13935;55.672;37.764;2023-07-29T00:15:44;99121.44;;;17.64;100.00
26192;BME280;13935;55.672;37.764;2023-07-29T00:16:47;99117.84;;;17.76;100.00
26192;BME280;13935;55.672;37.764;2023-07-29T00:17:49;99107.28;;;17.59;100.00
26192;BME280;13935;55.672;37.764;2023-07-29T00:18:51;99112.66;;;17.53;100.00
26192;BME280;13935;55.672;37.764;2023-07-29T00:19:53;99108.59;;;17.67;100.00
26192;BME280;13935;55.672;37.764;2023-07-29T00:20:54;99107.22;;;17.71;100.00
26192;BME280;13935;55.672;37.764;2023-07-29T00:21:57;99101.88;;;17.64;100.00
26192;BME280;13935;55.672;37.764;2023-07-29T00:22:59;99097.28;;;17.70;100.00
26192;BME280;13935;55.672;37.764;2023-07-29T00:24:01;99094.91;;;17.69;100.00
26192;BME280;13935;55.672;37.764;2023-07-29T00:25:03;99100.63;;;17.65;100.00
26192;BME280;13935;55.672;37.764;2023-07-29T00:26:05;99092.81;;;17.60;100.00
26192;BME280;13935;55.672;37.764;2023-07-29T00:27:06;99099.50;;;17.75;100.00
26192;BME280;13935;55.672;37.764;2023-07-29T00:28:08;99100.59;;;17.78;100.00
26192;BME280;13935;55.672;37.764;2023-07-29T00:29:10;99103.41;;;17.78;100.00
26192;BME280;13935;55.672;37.764;2023-07-29T00:30:12;99105.28;;;17.81;100.00
26192;BME280;13935;55.672;37.764;2023-07-29T00:31:15;99103.19;;;17.72;100.00
26192;BME280;13935;55.672;37.764;2023-07-29T00:32:17;99106.00;;;17.72;100.00
26192;BME280;13935;55.672;37.764;2023-07-29T00:33:19;99110.44;;;17.82;100.00
26192;BME280;13935;55.672;37.764;2023-07-29T00:34:22;99103.81;;;17.88;100.00
26192;BME280;13935;55.672;37.764;2023-07-29T00:35:24;99103.88;;;17.76;100.00
26192;BME280;13935;55.672;37.764;2023-07-29T00:36:25;99107.16;;;17.62;100.00
26192;BME280;13935;55.672;37.764;2023-07-29T00:37:28;99102.88;;;17.70;100.00
26192;BME280;13935;55.672;37.764;2023-07-29T00:38:30;99106.66;;;17.76;100.00
26192;BME280;13935;55.672;37.764;2023-07-29T00:39:32;99107.56;;;17.73;100.00
26192;BME280;13935;55.672;37.764;2023-07-29T00:40:35;99101.06;;;17.76;100.00
26192;BME280;13935;55.672;37.764;2023-07-29T00:41:37;99102.59;;;17.77;100.00
26192;BME280;13935;55.672;37.764;2023-07-29T00:42:39;99098.63;;;17.66;100.00
26192;BME280;13935;55.672;37.764;2023-07-29T00:43:43;99097.84;;;17.65;100.00
26192;BME280;13935;55.672;37.764;2023-07-29T00:44:44;99096.03;;;17.71;100.00
26192;BME280;13935;55.672;37.764;2023-07-29T00:45:46;99097.94;;;17.74;100.00
26192;BME280;13935;55.672;37.764;2023-07-29T00:46:52;99096.94;;;17.68;100.00
26192;BME280;13935;55.672;37.764;2023-07-29T00:47:54;99100.38;;;17.72;100.00
26192;BME280;13935;55.672;37.764;2023-07-29T00:48:56;99094.41;;;17.61;100.00
26192;BME280;13935;55.672;37.764;2023-07-29T00:49:58;99087.88;;;17.64;100.00
26192;BME280;13935;55.672;37.764;2023-07-29T00:51:00;99084.31;;;17.64;100.00
26192;BME280;13935;55.672;37.764;2023-07-29T00:52:02;99087.19;;;17.73;100.00
26192;BME280;13935;55.672;37.764;2023-07-29T00:53:04;99085.66;;;17.59;100.00
26192;BME280;13935;55.672;37.764;2023-07-29T00:54:06;99077.25;;;17.59;100.00
26192;BME280;13935;55.672;37.764;2023-07-29T00:55:08;99081.97;;;17.62;100.00
26192;BME280;13935;55.672;37.764;2023-07-29T00:56:10;99094.63;;;17.54;100.00
26192;BME280;13935;55.672;37.764;2023-07-29T00:57:13;99085.91;;;17.52;100.00
26192;BME280;13935;55.672;37.764;2023-07-29T00:58:16;99091.25;;;17.59;100.00
26192;BME280;13935;55.672;37.764;2023-07-29T00:59:18;99089.50;;;17.53;100.00
26192;BME280;13935;55.672;37.764;2023-07-29T01:00:21;99085.00;;;17.55;100.00
26192;BME280;13935;55.672;37.764;2023-07-29T01:01:25;99092.69;;;17.64;100.00
26192;BME280;13935;55.672;37.764;2023-07-29T01:02:27;99084.41;;;17.73;100.00
26192;BME280;13935;55.672;37.764;2023-07-29T01:03:31;99084.19;;;17.67;100.00
26192;BME280;13935;55.672;37.764;2023-07-29T01:04:33;99084.53;;;17.69;100.00
26192;BME280;13935;55.672;37.764;2023-07-29T01:05:49;99087.56;;;17.62;100.00
26192;BME280;13935;55.672;37.764;2023-07-29T01:06:58;99083.19;;;17.61;100.00
26192;BME280;13935;55.672;37.764;2023-07-29T01:08:49;99078.25;;;17.65;100.00
26192;BME280;13935;55.672;37.764;2023-07-29T01:11:08;99082.75;;;17.63;100.00
26192;BME280;13935;55.672;37.764;2023-07-29T01:12:21;99079.47;;;17.64;100.00
26192;BME280;13935;55.672;37.764;2023-07-29T01:13:31;99081.75;;;17.57;100.00
26192;BME280;13935;55.672;37.764;2023-07-29T01:14:47;99081.72;;;17.35;100.00
26192;BME280;13935;55.672;37.764;2023-07-29T01:15:53;99089.28;;;17.47;100.00
26192;BME280;13935;55.672;37.764;2023-07-29T01:16:59;99092.94;;;17.57;100.00
26192;BME280;13935;55.672;37.764;2023-07-29T01:18:05;99089.84;;;17.55;100.00
26192;BME280;13935;55.672;37.764;2023-07-29T01:19:13;99082.13;;;17.46;100.00
26192;BME280;13935;55.672;37.764;2023-07-29T01:20:18;99078.66;;;17.55;100.00
26192;BME280;13935;55.672;37.764;2023-07-29T01:21:24;99079.19;;;17.50;100.00
26192;BME280;13935;55.672;37.764;2023-07-29T01:22:27;99081.09;;;17.53;100.00
26192;BME280;13935;55.672;37.764;2023-07-29T01:23:33;99084.38;;;17.51;100.00
26192;BME280;13935;55.672;37.764;2023-07-29T01:24:35;99079.78;;;17.45;100.00
26192;BME280;13935;55.672;37.764;2023-07-29T01:25:37;99076.22;;;17.44;100.00
26192;BME280;13935;55.672;37.764;2023-07-29T01:26:40;99079.00;;;17.44;100.00
26192;BME280;13935;55.672;37.764;2023-07-29T01:27:43;99068.25;;;17.43;100.00
26192;BME280;13935;55.672;37.764;2023-07-29T01:28:45;99077.09;;;17.41;100.00
26192;BME280;13935;55.672;37.764;2023-07-29T01:29:46;99073.19;;;17.51;100.00
26192;BME280;13935;55.672;37.764;2023-07-29T01:30:49;99073.19;;;17.51;100.00
26192;BME280;13935;55.672;37.764;2023-07-29T01:31:51;99069.53;;;17.29;100.00
26192;BME280;13935;55.672;37.764;2023-07-29T01:33:08;99069.75;;;17.35;100.00
26192;BME280;13935;55.672;37.764;2023-07-29T01:34:35;99052.41;;;17.40;100.00
26192;BME280;13935;55.672;37.764;2023-07-29T01:35:47;99045.44;;;17.44;100.00
26192;BME280;13935;55.672;37.764;2023-07-29T01:36:50;99044.78;;;17.40;100.00
26192;BME280;13935;55.672;37.764;2023-07-29T01:37:54;99046.44;;;17.50;100.00
26192;BME280;13935;55.672;37.764;2023-07-29T01:38:57;99047.66;;;17.49;100.00
26192;BME280;13935;55.672;37.764;2023-07-29T01:39:59;99044.28;;;17.54;100.00
26192;BME280;13935;55.672;37.764;2023-07-29T01:41:04;99049.41;;;17.56;100.00
26192;BME280;13935;55.672;37.764;2023-07-29T01:42:07;99045.94;;;17.30;100.00
26192;BME280;13935;55.672;37.764;2023-07-29T01:43:10;99051.81;;;17.45;100.00
26192;BME280;13935;55.672;37.764;2023-07-29T01:44:12;99046.34;;;17.41;100.00
26192;BME280;13935;55.672;37.764;2023-07-29T01:45:15;99055.72;;;17.47;100.00
26192;BME280;13935;55.672;37.764;2023-07-29T01:46:16;99049.22;;;17.50;100.00
26192;BME280;13935;55.672;37.764;2023-07-29T01:47:19;99051.03;;;17.44;100.00
26192;BME280;13935;55.672;37.764;2023-07-29T01:48:21;99045.44;;;17.44;100.00
26192;BME280;13935;55.672;37.764;2023-07-29T01:49:24;99050.38;;;17.40;100.00
26192;BME280;13935;55.672;37.764;2023-07-29T01:50:26;99046.56;;;17.34;100.00
26192;BME280;13935;55.672;37.764;2023-07-29T01:51:28;99049.59;;;17.40;100.00
26192;BME280;13935;55.672;37.764;2023-07-29T01:52:30;99044.13;;;17.36;100.00
26192;BME280;13935;55.672;37.764;2023-07-29T01:53:32;99037.75;;;17.36;100.00
26192;BME280;13935;55.672;37.764;2023-07-29T01:54:35;99047.13;;;17.42;100.00
26192;BME280;13935;55.672;37.764;2023-07-29T01:55:37;99044.13;;;17.36;100.00
26192;BME280;13935;55.672;37.764;2023-07-29T01:56:39;99044.78;;;17.40;100.00
26192;BME280;13935;55.672;37.764;2023-07-29T01:57:41;99052.63;;;17.33;100.00
26192;BME280;13935;55.672;37.764;2023-07-29T01:58:42;99048.28;;;17.32;100.00
26192;BME280;13935;55.672;37.764;2023-07-29T01:59:44;99049.72;;;17.36;100.00
26192;BME280;13935;55.672;37.764;2023-07-29T02:00:46;99043.19;;;17.39;100.00
26192;BME280;13935;55.672;37.764;2023-07-29T02:01:48;99047.78;;;17.46;100.00
26192;BME280;13935;55.672;37.764;2023-07-29T02:02:50;99050.38;;;17.40;100.00
26192;BME280;13935;55.672;37.764;2023-07-29T02:03:52;99046.69;;;17.31;100.00
26192;BME280;13935;55.672;37.764;2023-07-29T02:04:58;99050.97;;;17.23;100.00
26192;BME280;13935;55.672;37.764;2023-07-29T02:06:00;99051.19;;;17.16;100.00
26192;BME280;13935;55.672;37.764;2023-07-29T02:07:02;99058.34;;;17.29;100.00
26192;BME280;13935;55.672;37.764;2023-07-29T02:08:04;99060.69;;;17.18;100.00
26192;BME280;13935;55.672;37.764;2023-07-29T02:09:06;99061.47;;;17.19;100.00
26192;BME280;13935;55.672;37.764;2023-07-29T02:10:08;99072.22;;;17.20;100.00
26192;BME280;13935;55.672;37.764;2023-07-29T02:11:10;99067.84;;;17.19;100.00
26192;BME280;13935;55.672;37.764;2023-07-29T02:12:13;99078.72;;;17.30;100.00
26192;BME280;13935;55.672;37.764;2023-07-29T02:13:15;99077.81;;;17.33;100.00
26192;BME280;13935;55.672;37.764;2023-07-29T02:14:17;99077.03;;;17.32;100.00
26192;BME280;13935;55.672;37.764;2023-07-29T02:15:19;99079.69;;;17.23;100.00
26192;BME280;13935;55.672;37.764;2023-07-29T02:16:21;99092.91;;;17.35;100.00
26192;BME280;13935;55.672;37.764;2023-07-29T02:17:25;99091.66;;;17.24;100.00
26192;BME280;13935;55.672;37.764;2023-07-29T02:18:28;99089.19;;;17.26;100.00
26192;BME280;13935;55.672;37.764;2023-07-29T02:19:33;99099.41;;;17.32;100.00
26192;BME280;13935;55.672;37.764;2023-07-29T02:20:35;99098.25;;;17.42;100.00
26192;BME280;13935;55.672;37.764;2023-07-29T02:21:37;99101.63;;;17.37;100.00
26192;BME280;13935;55.672;37.764;2023-07-29T02:22:39;99095.00;;;17.44;100.00
26192;BME280;13935;55.672;37.764;2023-07-29T02:23:41;99091.09;;;17.41;100.00
26192;BME280;13935;55.672;37.764;2023-07-29T02:24:43;99105.41;;;17.43;100.00
26192;BME280;13935;55.672;37.764;2023-07-29T02:25:44;99097.47;;;17.42;100.00
26192;BME280;13935;55.672;37.764;2023-07-29T02:26:47;99101.50;;;17.41;100.00
26192;BME280;13935;55.672;37.764;2023-07-29T02:27:49;99098.94;;;17.34;100.00
26192;BME280;13935;55.672;37.764;2023-07-29T02:28:51;99100.06;;;17.36;100.00
26192;BME280;13935;55.672;37.764;2023-07-29T02:29:53;99102.28;;;17.41;100.00
26192;BME280;13935;55.672;37.764;2023-07-29T02:31:13;99103.75;;;17.33;100.00
26192;BME280;13935;55.672;37.764;2023-07-29T02:32:16;99091.78;;;17.20;100.00
26192;BME280;13935;55.672;37.764;2023-07-29T02:33:18;99081.50;;;17.17;100.00
26192;BME280;13935;55.672;37.764;2023-07-29T02:34:20;99085.84;;;17.31;100.00
26192;BME280;13935;55.672;37.764;2023-07-29T02:35:22;99077.56;;;17.27;100.00
26192;BME280;13935;55.672;37.764;2023-07-29T02:36:24;99077.47;;;17.31;100.00
26192;BME280;13935;55.672;37.764;2023-07-29T02:37:26;99068.31;;;17.30;100.00
26192;BME280;13935;55.672;37.764;2023-07-29T02:38:28;99068.84;;;17.25;100.00
26192;BME280;13935;55.672;37.764;2023-07-29T02:39:30;99071.53;;;17.16;100.00
26192;BME280;13935;55.672;37.764;2023-07-29T02:40:32;99084.63;;;17.19;100.00
26192;BME280;13935;55.672;37.764;2023-07-29T02:41:34;99075.69;;;17.12;100.00
26192;BME280;13935;55.672;37.764;2023-07-29T02:42:36;99084.63;;;17.19;100.00
26192;BME280;13935;55.672;37.764;2023-07-29T02:43:38;99091.91;;;17.29;100.00
26192;BME280;13935;55.672;37.764;2023-07-29T02:44:40;99100.50;;;17.22;100.00
26192;BME280;13935;55.672;37.764;2023-07-29T02:45:42;99097.69;;;17.22;100.00
26192;BME280;13935;55.672;37.764;2023-07-29T02:46:43;99101.28;;;17.35;100.00
26192;BME280;13935;55.672;37.764;2023-07-29T02:47:45;99102.38;;;17.38;100.00
26192;BME280;13935;55.672;37.764;2023-07-29T02:48:48;99103.50;;;17.40;100.00
26192;BME280;13935;55.672;37.764;2023-07-29T02:49:50;99103.25;;;17.47;100.00
26192;BME280;13935;55.672;37.764;2023-07-29T02:50:52;99102.06;;;17.23;100.00
26192;BME280;13935;55.672;37.764;2023-07-29T02:51:54;99098.81;;;17.25;100.00
26192;BME280;13935;55.672;37.764;2023-07-29T02:52:55;99095.34;;;17.09;100.00
26192;BME280;13935;55.672;37.764;2023-07-29T02:53:57;99098.25;;;17.17;100.00
26192;BME280;13935;55.672;37.764;2023-07-29T02:54:59;99099.25;;;17.23;100.00
26192;BME280;13935;55.672;37.764;2023-07-29T02:56:01;99106.69;;;17.05;100.00
26192;BME280;13935;55.672;37.764;2023-07-29T02:57:03;99101.31;;;16.98;100.00
26192;BME280;13935;55.672;37.764;2023-07-29T02:58:05;99096.84;;;17.01;100.00
26192;BME280;13935;55.672;37.764;2023-07-29T02:59:07;99097.63;;;16.89;100.00
26192;BME280;13935;55.672;37.764;2023-07-29T03:00:09;99093.69;;;16.99;100.00
26192;BME280;13935;55.672;37.764;2023-07-29T03:01:12;99093.13;;;17.04;100.00
26192;BME280;13935;55.672;37.764;2023-07-29T03:02:14;99088.53;;;17.10;100.00
26192;BME280;13935;55.672;37.764;2023-07-29T03:03:17;99082.19;;;17.09;100.00
26192;BME280;13935;55.672;37.764;2023-07-29T03:04:21;99077.28;;;17.01;100.00
26192;BME280;13935;55.672;37.764;2023-07-29T03:05:28;99073.56;;;17.04;100.00
26192;BME280;13935;55.672;37.764;2023-07-29T03:06:30;99083.41;;;17.20;100.00
26192;BME280;13935;55.672;37.764;2023-07-29T03:07:33;99075.13;;;17.17;100.00
26192;BME280;13935;55.672;37.764;2023-07-29T03:08:36;99065.94;;;17.16;100.00
26192;BME280;13935;55.672;37.764;2023-07-29T03:09:38;99071.88;;;17.18;100.00
26192;BME280;13935;55.672;37.764;2023-07-29T03:10:39;99066.75;;;17.05;100.00
26192;BME280;13935;55.672;37.764;2023-07-29T03:11:43;99064.72;;;17.17;100.00
26192;BME280;13935;55.672;37.764;2023-07-29T03:12:46;99064.16;;;17.22;100.00
26192;BME280;13935;55.672;37.764;2023-07-29T03:13:48;99068.66;;;17.32;100.00
26192;BME280;13935;55.672;37.764;2023-07-29T03:14:50;99064.94;;;17.35;100.00
26192;BME280;13935;55.672;37.764;2023-07-29T03:15:52;99063.34;;;17.34;100.00
26192;BME280;13935;55.672;37.764;2023-07-29T03:16:55;99061.78;;;17.33;100.00
26192;BME280;13935;55.672;37.764;2023-07-29T03:17:57;99063.13;;;17.41;100.00
26192;BME280;13935;55.672;37.764;2023-07-29T03:18:59;99057.75;;;17.34;100.00
26192;BME280;13935;55.672;37.764;2023-07-29T03:20:02;99057.09;;;17.18;100.00
26192;BME280;13935;55.672;37.764;2023-07-29T03:21:04;99051.97;;;17.16;100.00
26192;BME280;13935;55.672;37.764;2023-07-29T03:22:06;99055.75;;;17.22;100.00
26192;BME280;13935;55.672;37.764;2023-07-29T03:23:08;99058.09;;;17.24;100.00
26192;BME280;13935;55.672;37.764;2023-07-29T03:24:10;99056.00;;;17.15;100.00
26192;BME280;13935;55.672;37.764;2023-07-29T03:25:13;99056.00;;;17.15;100.00
26192;BME280;13935;55.672;37.764;2023-07-29T03:26:14;99062.38;;;17.16;100.00
26192;BME280;13935;55.672;37.764;2023-07-29T03:27:17;99049.41;;;17.22;100.00
26192;BME280;13935;55.672;37.764;2023-07-29T03:28:19;99056.69;;;17.19;100.00
26192;BME280;13935;55.672;37.764;2023-07-29T03:29:21;99048.59;;;17.21;100.00
26192;BME280;13935;55.672;37.764;2023-07-29T03:30:22;99046.28;;;17.32;100.00
26192;BME280;13935;55.672;37.764;2023-07-29T03:31:26;99046.81;;;17.27;100.00
26192;BME280;13935;55.672;37.764;2023-07-29T03:32:29;99044.78;;;17.40;100.00
26192;BME280;13935;55.672;37.764;2023-07-29T03:33:31;99040.09;;;17.37;100.00
26192;BME280;13935;55.672;37.764;2023-07-29T03:34:32;99038.53;;;17.36;100.00
26192;BME280;13935;55.672;37.764;2023-07-29T03:35:35;99042.56;;;17.35;100.00
26192;BME280;13935;55.672;37.764;2023-07-29T03:36:36;99031.59;;;17.28;100.00
26192;BME280;13935;55.672;37.764;2023-07-29T03:37:39;99035.59;;;17.40;100.00
26192;BME280;13935;55.672;37.764;2023-07-29T03:38:41;99036.50;;;17.37;100.00
26192;BME280;13935;55.672;37.764;2023-07-29T03:39:44;99026.69;;;17.32;100.00
26192;BME280;13935;55.672;37.764;2023-07-29T03:40:46;99027.09;;;17.43;100.00
26192;BME280;13935;55.672;37.764;2023-07-29T03:41:52;99029.84;;;17.10;100.00
26192;BME280;13935;55.672;37.764;2023-07-29T03:42:54;99033.31;;;17.14;100.00
26192;BME280;13935;55.672;37.764;2023-07-29T03:43:56;99026.91;;;17.25;100.00
26192;BME280;13935;55.672;37.764;2023-07-29T03:44:58;99026.69;;;17.32;100.00
26192;BME280;13935;55.672;37.764;2023-07-29T03:46:00;99020.81;;;17.39;100.00
26192;BME280;13935;55.672;37.764;2023-07-29T03:47:14;99017.47;;;17.44;100.00
26192;BME280;13935;55.672;37.764;2023-07-29T03:48:19;99032.41;;;17.29;100.00
26192;BME280;13935;55.672;37.764;2023-07-29T03:49:25;99023.66;;;17.14;100.00
26192;BME280;13935;55.672;37.764;2023-07-29T03:50:29;99028.50;;;17.26;100.00
26192;BME280;13935;55.672;37.764;2023-07-29T03:51:42;99019.59;;;17.40;100.00
26192;BME280;13935;55.672;37.764;2023-07-29T03:52:46;99026.88;;;17.38;100.00
26192;BME280;13935;55.672;37.764;2023-07-29T03:54:05;99012.00;;;17.41;100.00
26192;BME280;13935;55.672;37.764;2023-07-29T03:55:19;99011.22;;;17.40;100.00
26192;BME280;13935;55.672;37.764;2023-07-29T03:56:25;99013.03;;;17.34;100.00
26192;BME280;13935;55.672;37.764;2023-07-29T03:57:31;99008.53;;;17.37;100.00
26192;BME280;13935;55.672;37.764;2023-07-29T03:58:46;99008.34;;;17.31;100.00
26192;BME280;13935;55.672;37.764;2023-07-29T03:59:57;99008.94;;;17.26;100.00
26192;BME280;13935;55.672;37.764;2023-07-29T04:01:06;99013.69;;;17.38;100.00
26192;BME280;13935;55.672;37.764;2023-07-29T04:02:13;99006.41;;;17.41;100.00
26192;BME280;13935;55.672;37.764;2023-07-29T04:03:17;99016.81;;;17.40;100.00
26192;BME280;13935;55.672;37.764;2023-07-29T04:04:21;99019.88;;;17.21;100.00
26192;BME280;13935;55.672;37.764;2023-07-29T04:05:22;99012.59;;;17.23;100.00
26192;BME280;13935;55.672;37.764;2023-07-29T04:06:24;99012.38;;;17.30;100.00
26192;BME280;13935;55.672;37.764;2023-07-29T04:07:26;99010.47;;;17.27;100.00
26192;BME280;13935;55.672;37.764;2023-07-29T04:08:28;99008.88;;;17.39;100.00
26192;BME280;13935;55.672;37.764;2023-07-29T04:09:30;99014.41;;;17.30;100.00
26192;BME280;13935;55.672;37.764;2023-07-29T04:10:32;99004.19;;;17.36;100.00
26192;BME280;13935;55.672;37.764;2023-07-29T04:11:36;98997.16;;;17.31;100.00
26192;BME280;13935;55.672;37.764;2023-07-29T04:12:39;99005.63;;;17.40;100.00
26192;BME280;13935;55.672;37.764;2023-07-29T04:13:41;99000.69;;;17.44;100.00
26192;BME280;13935;55.672;37.764;2023-07-29T04:14:43;99001.25;;;17.39;100.00
26192;BME280;13935;55.672;37.764;2023-07-29T04:15:45;99002.91;;;17.49;100.00
26192;BME280;13935;55.672;37.764;2023-07-29T04:16:52;99004.97;;;17.36;100.00
26192;BME280;13935;55.672;37.764;2023-07-29T04:17:54;98999.31;;;17.49;100.00
26192;BME280;13935;55.672;37.764;2023-07-29T04:18:56;98996.91;;;17.38;100.00
26192;BME280;13935;55.672;37.764;2023-07-29T04:19:58;98999.13;;;17.43;100.00
26192;BME280;13935;55.672;37.764;2023-07-29T04:21:07;99000.53;;;17.26;100.00
26192;BME280;13935;55.672;37.764;2023-07-29T04:22:11;99004.72;;;17.43;100.00
26192;BME280;13935;55.672;37.764;2023-07-29T04:23:13;99008.88;;;17.39;100.00
26192;BME280;13935;55.672;37.764;2023-07-29T04:24:16;99006.59;;;17.13;100.00
26192;BME280;13935;55.672;37.764;2023-07-29T04:25:19;99003.88;;;17.21;100.00
26192;BME280;13935;55.672;37.764;2023-07-29T04:26:21;99003.75;;;17.37;100.00
26192;BME280;13935;55.672;37.764;2023-07-29T04:27:27;98993.28;;;17.50;100.00
26192;BME280;13935;55.672;37.764;2023-07-29T04:28:29;98995.25;;;17.62;100.00
26192;BME280;13935;55.672;37.764;2023-07-29T04:29:31;98999.13;;;17.43;100.00
26192;BME280;13935;55.672;37.764;2023-07-29T04:30:33;99003.06;;;17.33;100.00
26192;BME280;13935;55.672;37.764;2023-07-29T04:31:39;98998.84;;;17.16;100.00
26192;BME280;13935;55.672;37.764;2023-07-29T04:32:42;98999.97;;;17.31;100.00
26192;BME280;13935;55.672;37.764;2023-07-29T04:33:44;98998.50;;;17.14;100.00
26192;BME280;13935;55.672;37.764;2023-07-29T04:34:45;98999.78;;;17.14;100.00
26192;BME280;13935;55.672;37.764;2023-07-29T04:35:47;99001.88;;;17.22;100.00
26192;BME280;13935;55.672;37.764;2023-07-29T04:36:49;98997.03;;;17.22;100.00
26192;BME280;13935;55.672;37.764;2023-07-29T04:37:51;98994.94;;;17.26;100.00
26192;BME280;13935;55.672;37.764;2023-07-29T04:38:53;98994.38;;;17.19;100.00
26192;BME280;13935;55.672;37.764;2023-07-29T04:39:54;98998.72;;;17.32;100.00
26192;BME280;13935;55.672;37.764;2023-07-29T04:40:56;98991.31;;;17.38;100.00
26192;BME280;13935;55.672;37.764;2023-07-29T04:41:58;98994.72;;;17.09;100.00
26192;BME280;13935;55.672;37.764;2023-07-29T04:43:00;98995.41;;;17.13;100.00
26192;BME280;13935;55.672;37.764;2023-07-29T04:44:02;98998.72;;;17.20;100.00
26192;BME280;13935;55.672;37.764;2023-07-29T04:45:06;98984.47;;;17.06;100.00
26192;BME280;13935;55.672;37.764;2023-07-29T04:46:08;98990.41;;;17.08;100.00
26192;BME280;13935;55.672;37.764;2023-07-29T04:47:11;98987.44;;;17.23;100.00
26192;BME280;13935;55.672;37.764;2023-07-29T04:48:13;98989.75;;;17.37;100.00
26192;BME280;13935;55.672;37.764;2023-07-29T04:49:14;98984.69;;;17.45;100.00
26192;BME280;13935;55.672;37.764;2023-07-29T04:50:16;98982.09;;;17.50;100.00
26192;BME280;13935;55.672;37.764;2023-07-29T04:51:18;98980.28;;;17.56;100.00
26192;BME280;13935;55.672;37.764;2023-07-29T04:52:20;98981.84;;;17.57;100.00
26192;BME280;13935;55.672;37.764;2023-07-29T04:53:23;98977.78;;;17.58;100.00
26192;BME280;13935;55.672;37.764;2023-07-29T04:54:25;98979.47;;;17.56;100.00
26192;BME280;13935;55.672;37.764;2023-07-29T04:55:27;98976.69;;;17.56;100.00
26192;BME280;13935;55.672;37.764;2023-07-29T04:56:29;98978.72;;;17.55;100.00
26192;BME280;13935;55.672;37.764;2023-07-29T04:57:31;98959.84;;;17.68;100.00
26192;BME280;13935;55.672;37.764;2023-07-29T04:58:32;98968.56;;;17.70;100.00
26192;BME280;13935;55.672;37.764;2023-07-29T04:59:36;98962.31;;;17.66;100.00
26192;BME280;13935;55.672;37.764;2023-07-29T05:00:38;98966.03;;;17.63;100.00
26192;BME280;13935;55.672;37.764;2023-07-29T05:01:40;98962.81;;;17.74;100.00
26192;BME280;13935;55.672;37.764;2023-07-29T05:02:45;98967.31;;;17.71;100.00
26192;BME280;13935;55.672;37.764;2023-07-29T05:03:47;98955.22;;;17.74;100.00
26192;BME280;13935;55.672;37.764;2023-07-29T05:04:49;98951.50;;;17.77;100.00
26192;BME280;13935;55.672;37.764;2023-07-29T05:05:51;98964.59;;;17.80;100.00
26192;BME280;13935;55.672;37.764;2023-07-29T05:06:57;98951.88;;;17.88;100.00
26192;BME280;13935;55.672;37.764;2023-07-29T05:08:00;98956.13;;;17.71;100.00
26192;BME280;13935;55.672;37.764;2023-07-29T05:09:17;98956.72;;;17.66;100.00
26192;BME280;13935;55.672;37.764;2023-07-29T05:10:19;98951.28;;;17.93;100.00
26192;BME280;13935;55.672;37.764;2023-07-29T05:11:22;98947.81;;;17.89;100.00
26192;BME280;13935;55.672;37.764;2023-07-29T05:12:24;98949.38;;;17.90;100.00
26192;BME280;13935;55.672;37.764;2023-07-29T05:13:26;98944.03;;;17.74;100.00
26192;BME280;13935;55.672;37.764;2023-07-29T05:14:28;98941.84;;;17.78;100.00
26192;BME280;13935;55.672;37.764;2023-07-29T05:15:30;98946.28;;;17.88;100.00
26192;BME280;13935;55.672;37.764;2023-07-29T05:16:32;98952.16;;;17.81;100.00
26192;BME280;13935;55.672;37.764;2023-07-29T05:17:35;98946.94;;;17.71;100.00
26192;BME280;13935;55.672;37.764;2023-07-29T05:18:38;98942.25;;;17.68;100.00
26192;BME280;13935;55.672;37.764;2023-07-29T05:19:40;98943.09;;;17.77;100.00
26192;BME280;13935;55.672;37.764;2023-07-29T05:20:42;98947.16;;;17.76;100.00
26192;BME280;13935;55.672;37.764;2023-07-29T05:21:43;98939.88;;;17.79;100.00
26192;BME280;13935;55.672;37.764;2023-07-29T05:22:45;98946.03;;;17.95;100.00
26192;BME280;13935;55.672;37.764;2023-07-29T05:23:47;98944.47;;;17.94;100.00
26192;BME280;13935;55.672;37.764;2023-07-29T05:24:49;98953.16;;;17.96;100.00
26192;BME280;13935;55.672;37.764;2023-07-29T05:25:51;98947.56;;;17.96;100.00
26192;BME280;13935;55.672;37.764;2023-07-29T05:26:53;98956.09;;;17.92;100.00
26192;BME280;13935;55.672;37.764;2023-07-29T05:27:55;98949.78;;;18.01;100.00